Time;durP1;ratioP1;P1;durP2;ratioP2;P2;SDS_P1;SDS_P2;PMS_P1;PMS_P2;Temp;Humidity;BMP_temperature;BMP_pressure;BME280_temperature;BME280_humidity;BME280_pressure;Samples;Min_cycle;Max_cycle;Signal;HPM_P1;HPM_P2
2022/07/03 00:05:01;;;;;;;3.70;3.40;;;20.30;96.30;;;;;;10443220;28;20193;-79
2022/07/03 00:10:05;;;;;;;2.67;2.57;;;20.30;95.90;;;;;;10445387;28;20282;-78
2022/07/03 00:15:08;;;;;;;3.50;3.30;;;20.30;96.10;;;;;;10444573;28;20312;-79
2022/07/03 00:20:11;;;;;;;3.40;3.20;;;20.30;96.80;;;;;;10437614;28;20249;-78
2022/07/03 00:25:15;;;;;;;3.20;3.00;;;20.30;97.00;;;;;;10449629;28;20661;-77
2022/07/03 00:30:17;;;;;;;4.00;3.70;;;20.30;96.80;;;;;;10447251;28;20736;-77
2022/07/03 00:35:20;;;;;;;3.97;3.57;;;20.30;96.80;;;;;;10444116;28;20511;-77
2022/07/03 00:40:24;;;;;;;3.90;3.70;;;20.30;96.80;;;;;;10449834;28;20245;-77
2022/07/03 00:45:27;;;;;;;3.80;3.50;;;20.20;97.30;;;;;;10451925;28;20224;-77
2022/07/03 00:50:36;;;;;;;3.30;3.10;;;20.20;97.10;;;;;;10456433;28;20217;-77
2022/07/03 00:55:41;;;;;;;3.20;3.10;;;20.20;97.30;;;;;;10448551;28;20214;-77
2022/07/03 01:00:45;;;;;;;3.40;3.10;;;20.20;96.90;;;;;;10436977;28;20581;-78
2022/07/03 01:05:52;;;;;;;3.23;3.03;;;20.10;97.70;;;;;;10433193;28;20288;-77
2022/07/03 01:11:08;;;;;;;3.50;3.20;;;20.10;97.40;;;;;;10434626;28;20301;-78
2022/07/03 01:16:23;;;;;;;3.73;3.43;;;20.10;98.10;;;;;;10445282;28;20220;-77
2022/07/03 01:21:35;;;;;;;17.57;4.70;;;20.00;97.90;;;;;;10442930;28;20652;-78
2022/07/03 01:26:41;;;;;;;3.60;3.40;;;20.00;97.90;;;;;;10441489;28;20201;-77
2022/07/03 01:31:47;;;;;;;3.40;3.20;;;20.00;98.20;;;;;;10443822;28;20217;-78
2022/07/03 01:36:55;;;;;;;6.00;3.40;;;20.00;98.70;;;;;;10430981;28;20198;-78
2022/07/03 01:42:01;;;;;;;3.23;3.03;;;20.00;98.80;;;;;;10431867;28;20701;-77
2022/07/03 01:47:03;;;;;;;3.40;3.10;;;20.00;98.50;;;;;;10443181;28;20193;-77
2022/07/03 01:52:06;;;;;;;3.23;3.03;;;20.00;98.60;;;;;;10438136;28;20225;-76
2022/07/03 01:57:10;;;;;;;3.47;3.17;;;20.00;98.80;;;;;;10448906;28;20212;-77
2022/07/03 02:02:22;;;;;;;3.57;3.37;;;20.00;98.90;;;;;;10450092;28;20582;-77
2022/07/03 02:07:34;;;;;;;3.20;3.00;;;20.00;98.30;;;;;;10445194;28;20284;-78
2022/07/03 02:12:48;;;;;;;3.50;3.13;;;19.90;98.30;;;;;;10446729;28;20649;-75
2022/07/03 02:17:52;;;;;;;3.80;3.60;;;19.90;98.20;;;;;;10447774;28;20312;-76
2022/07/03 02:22:58;;;;;;;3.40;3.20;;;19.90;98.90;;;;;;10449218;28;20227;-78
2022/07/03 02:28:06;;;;;;;3.77;3.43;;;19.80;98.10;;;;;;10450791;28;20304;-77
2022/07/03 02:33:12;;;;;;;2.80;2.60;;;19.80;99.30;;;;;;10451810;28;20298;-78
2022/07/03 02:38:19;;;;;;;3.67;3.33;;;19.80;99.40;;;;;;10446016;28;20708;-76
2022/07/03 02:43:29;;;;;;;3.30;3.10;;;19.80;99.50;;;;;;10447544;28;20630;-79
2022/07/03 02:48:35;;;;;;;3.10;2.90;;;19.70;99.30;;;;;;10451752;28;20232;-77
2022/07/03 02:53:46;;;;;;;3.03;2.93;;;19.70;99.80;;;;;;10450398;28;20235;-78
2022/07/03 02:59:10;;;;;;;3.53;3.33;;;19.70;99.90;;;;;;10450641;28;20307;-78
2022/07/03 03:04:19;;;;;;;3.13;3.03;;;19.60;99.90;;;;;;10446125;28;20255;-78
2022/07/03 03:09:27;;;;;;;3.87;3.67;;;19.60;99.90;;;;;;10446316;28;20308;-77
2022/07/03 03:14:38;;;;;;;3.60;3.40;;;19.60;99.80;;;;;;10449685;28;20677;-76
2022/07/03 03:19:42;;;;;;;3.27;3.17;;;19.60;99.90;;;;;;10443297;28;20229;-77
2022/07/03 03:24:44;;;;;;;3.30;3.10;;;19.60;99.90;;;;;;10444955;28;20189;-76
2022/07/03 03:29:48;;;;;;;3.30;3.20;;;19.50;99.90;;;;;;10445150;28;20381;-77
2022/07/03 03:34:51;;;;;;;3.30;3.10;;;19.50;99.90;;;;;;10446215;28;20256;-77
2022/07/03 03:39:53;;;;;;;3.27;3.17;;;19.50;99.90;;;;;;10450009;28;20243;-76
2022/07/03 03:44:57;;;;;;;3.23;2.80;;;19.50;99.90;;;;;;10443468;28;20284;-76
2022/07/03 03:49:59;;;;;;;3.23;3.10;;;19.50;99.90;;;;;;10444258;28;20263;-76
2022/07/03 03:55:02;;;;;;;3.40;3.00;;;19.50;99.90;;;;;;10450977;28;20685;-76
2022/07/03 04:00:07;;;;;;;3.80;3.60;;;19.50;99.90;;;;;;10454323;28;20588;-76
2022/07/03 04:05:14;;;;;;;3.70;3.50;;;19.50;99.90;;;;;;10455219;28;20196;-77
2022/07/03 04:10:16;;;;;;;3.10;3.00;;;19.50;99.90;;;;;;10450231;28;20225;-77
2022/07/03 04:15:20;;;;;;;3.53;3.10;;;19.50;99.90;;;;;;10450771;28;20221;-77
2022/07/03 04:20:22;;;;;;;3.30;3.20;;;19.50;99.90;;;;;;10452850;28;20214;-76
2022/07/03 04:25:24;;;;;;;3.47;3.27;;;19.50;99.90;;;;;;10454314;28;20293;-77
2022/07/03 04:30:28;;;;;;;3.87;3.60;;;19.50;99.90;;;;;;10456520;28;20221;-77
2022/07/03 04:35:30;;;;;;;3.63;3.43;;;19.50;99.90;;;;;;10449588;28;20248;-76
2022/07/03 04:40:32;;;;;;;3.17;3.00;;;19.50;99.90;;;;;;10451451;28;20233;-76
2022/07/03 04:45:36;;;;;;;3.33;3.13;;;19.50;99.90;;;;;;10451039;28;20193;-78
2022/07/03 04:50:38;;;;;;;3.40;3.20;;;19.60;99.90;;;;;;10458526;28;20291;-79
2022/07/03 04:55:40;;;;;;;3.30;3.10;;;19.60;99.90;;;;;;10452287;28;20248;-79
2022/07/03 05:00:44;;;;;;;3.50;3.40;;;19.60;99.90;;;;;;10454816;28;20756;-79
2022/07/03 05:05:46;;;;;;;2.93;2.83;;;19.60;99.90;;;;;;10454584;28;20197;-78
2022/07/03 05:10:48;;;;;;;3.37;3.17;;;19.60;99.90;;;;;;10457548;28;20231;-79
2022/07/03 05:15:51;;;;;;;3.60;3.40;;;19.60;99.90;;;;;;10438725;28;20347;-78
2022/07/03 05:20:53;;;;;;;3.20;3.00;;;19.70;99.90;;;;;;10451761;28;20225;-78
2022/07/03 05:25:56;;;;;;;3.50;3.20;;;19.70;99.90;;;;;;10448833;28;20201;-77
2022/07/03 05:30:59;;;;;;;3.20;3.10;;;19.70;99.90;;;;;;10450622;28;20283;-77
2022/07/03 05:36:04;;;;;;;3.20;3.10;;;19.80;99.90;;;;;;10455302;28;20235;-79
2022/07/03 05:41:06;;;;;;;3.00;2.80;;;19.90;99.90;;;;;;10456875;28;20259;-79
2022/07/03 05:46:12;;;;;;;3.67;3.47;;;19.90;99.90;;;;;;10453489;28;20225;-80
2022/07/03 05:51:14;;;;;;;3.50;3.30;;;20.00;99.90;;;;;;10452688;28;20239;-80
2022/07/03 05:56:21;;;;;;;3.20;3.00;;;20.00;99.90;;;;;;10452823;28;20581;-79
2022/07/03 06:01:24;;;;;;;3.50;3.30;;;20.10;99.90;;;;;;10455081;28;20729;-80
2022/07/03 06:06:26;;;;;;;3.20;3.10;;;20.20;99.90;;;;;;10455044;28;20197;-80
2022/07/03 06:11:28;;;;;;;3.40;3.30;;;20.30;99.90;;;;;;10452252;28;20767;-80
2022/07/03 06:16:33;;;;;;;3.30;3.10;;;20.40;99.90;;;;;;10453209;28;20254;-78
2022/07/03 06:21:35;;;;;;;2.80;2.70;;;20.40;99.90;;;;;;10453783;28;20629;-77
2022/07/03 06:26:37;;;;;;;2.80;2.60;;;20.50;99.90;;;;;;10454702;28;20227;-77
2022/07/03 06:31:40;;;;;;;2.70;2.60;;;20.60;99.90;;;;;;10451240;28;20590;-75
2022/07/03 06:36:42;;;;;;;2.50;2.40;;;20.80;99.90;;;;;;10444740;28;20595;-77
2022/07/03 06:41:45;;;;;;;2.90;2.80;;;20.90;99.90;;;;;;10450146;28;20371;-78
2022/07/03 06:46:48;;;;;;;3.20;3.00;;;21.10;99.90;;;;;;10453307;28;20688;-78
2022/07/03 06:51:50;;;;;;;4.83;2.63;;;21.40;99.90;;;;;;10454697;28;20221;-78
2022/07/03 06:56:53;;;;;;;3.23;2.60;;;21.70;99.90;;;;;;10450237;28;20304;-78
2022/07/03 07:01:56;;;;;;;2.70;2.60;;;22.10;99.90;;;;;;10450207;28;20231;-78
2022/07/03 07:06:58;;;;;;;2.63;2.50;;;22.50;99.40;;;;;;10450939;28;20681;-78
2022/07/03 07:12:00;;;;;;;2.27;2.00;;;22.90;97.50;;;;;;10454153;28;20244;-77
2022/07/03 07:17:04;;;;;;;2.10;2.00;;;23.20;95.90;;;;;;10455142;28;20243;-78
2022/07/03 07:22:06;;;;;;;2.40;2.23;;;23.60;95.10;;;;;;10449891;28;20585;-78
2022/07/03 07:27:08;;;;;;;2.50;2.40;;;24.10;93.20;;;;;;10452132;28;20280;-78
2022/07/03 07:32:12;;;;;;;2.33;2.23;;;24.60;93.70;;;;;;10460497;28;20278;-76
2022/07/03 07:37:14;;;;;;;2.37;2.27;;;25.10;92.10;;;;;;10462833;28;20304;-79
2022/07/03 07:42:16;;;;;;;2.40;2.30;;;25.60;90.30;;;;;;10464328;28;20229;-79
2022/07/03 07:47:20;;;;;;;2.50;2.40;;;26.10;89.10;;;;;;10457505;28;20569;-78
2022/07/03 07:52:24;;;;;;;3.43;2.20;;;26.80;89.60;;;;;;10459130;28;20231;-78
2022/07/03 07:57:26;;;;;;;5.13;2.10;;;27.20;82.90;;;;;;10461064;28;20695;-79
2022/07/03 08:07:48;;;;;;;2.20;2.10;;;28.20;82.70;;;;;;10463239;28;20201;-79
2022/07/03 08:12:51;;;;;;;1.80;1.70;;;28.60;80.30;;;;;;10457596;28;20201;-79
2022/07/03 08:17:54;;;;;;;2.57;2.37;;;29.10;75.30;;;;;;10458983;28;20221;-79
2022/07/03 08:22:56;;;;;;;2.10;2.00;;;29.50;76.50;;;;;;10456701;28;20627;-77
2022/07/03 08:27:59;;;;;;;2.43;2.33;;;29.90;69.90;;;;;;10457443;28;20229;-77
2022/07/03 08:33:03;;;;;;;2.27;2.17;;;30.20;69.80;;;;;;10452104;28;20209;-77
2022/07/03 08:38:05;;;;;;;7.53;6.93;;;30.50;70.40;;;;;;10450303;28;20261;-77
2022/07/03 08:43:07;;;;;;;2.30;2.20;;;30.80;68.40;;;;;;10448909;28;20215;-77
2022/07/03 08:48:11;;;;;;;2.10;2.00;;;31.10;67.00;;;;;;10452949;28;20243;-77
2022/07/03 08:53:14;;;;;;;2.83;1.70;;;31.50;64.70;;;;;;10455167;28;20296;-77
2022/07/03 08:58:19;;;;;;;1.70;1.70;;;31.70;63.30;;;;;;10450381;28;20733;-77
2022/07/03 09:03:25;;;;;;;1.90;1.80;;;32.00;59.90;;;;;;10450807;28;20198;-77
2022/07/03 09:08:31;;;;;;;1.60;1.60;;;32.30;59.60;;;;;;10450979;28;20245;-77
2022/07/03 09:13:33;;;;;;;1.90;1.80;;;32.50;57.70;;;;;;10455160;28;20668;-77
2022/07/03 09:18:41;;;;;;;1.60;1.60;;;32.80;58.00;;;;;;10454837;28;20213;-77
2022/07/03 09:23:45;;;;;;;2.00;1.90;;;33.20;55.10;;;;;;10450253;28;20193;-77
2022/07/03 09:28:51;;;;;;;1.87;1.77;;;33.40;53.80;;;;;;10453811;28;20298;-77
2022/07/03 09:33:59;;;;;;;2.03;1.93;;;33.50;53.40;;;;;;10456178;28;20228;-76
2022/07/03 09:39:02;;;;;;;1.70;1.70;;;33.80;52.80;;;;;;10451051;28;20232;-76
2022/07/03 09:44:05;;;;;;;2.10;2.00;;;34.30;50.40;;;;;;10452396;28;20199;-77
2022/07/03 09:49:08;;;;;;;1.85;1.75;;;35.00;50.30;;;;;;10447441;28;20220;-77
2022/07/03 09:54:16;;;;;;;1.67;1.60;;;35.90;49.30;;;;;;10449059;28;20763;-79
2022/07/03 09:59:18;;;;;;;1.90;1.80;;;36.80;47.40;;;;;;10449192;28;20219;-78
2022/07/03 10:04:23;;;;;;;1.80;1.70;;;37.60;47.70;;;;;;10449661;28;20575;-78
2022/07/03 10:09:26;;;;;;;4.80;1.90;;;37.80;46.20;;;;;;10449349;28;20225;-78
2022/07/03 10:14:30;;;;;;;2.00;1.90;;;38.80;42.80;;;;;;10450009;28;20424;-78
2022/07/03 10:19:40;;;;;;;2.85;1.88;;;39.90;44.30;;;;;;10452408;28;20220;-78
2022/07/03 10:24:44;;;;;;;1.85;1.85;;;40.30;42.50;;;;;;10453771;28;20224;-78
2022/07/03 10:29:48;;;;;;;2.30;2.05;;;39.40;43.00;;;;;;10447966;28;20808;-78
2022/07/03 10:34:52;;;;;;;2.00;2.00;;;37.60;44.80;;;;;;10451537;28;20221;-78
2022/07/03 10:44:45;;;;;;;2.00;1.90;;;35.70;45.10;;;;;;10452275;28;20315;-77
2022/07/03 10:45:24;;;;;;;2.00;1.90;;;34.30;47.30;;;;;;10441012;28;20252;-77
2022/07/03 10:50:27;;;;;;;1.90;1.80;;;33.00;48.70;;;;;;10451919;28;20224;-77
2022/07/03 10:55:30;;;;;;;2.20;2.00;;;32.00;51.70;;;;;;10446530;28;20248;-78
2022/07/03 11:00:32;;;;;;;2.07;1.97;;;31.20;53.20;;;;;;10435336;28;20584;-78
2022/07/03 11:05:44;;;;;;;2.70;2.50;;;30.50;53.80;;;;;;10457974;28;20197;-77
2022/07/03 11:11:54;;;;;;;2.10;2.00;;;29.90;54.40;;;;;;10461130;28;20239;-77
2022/07/03 11:16:23;;;;;;;2.27;2.17;;;29.40;54.40;;;;;;10445822;28;20221;-77
2022/07/03 11:21:37;;;;;;;1.77;1.77;;;29.00;56.60;;;;;;10449701;28;20232;-78
2022/07/03 11:26:39;;;;;;;2.07;1.97;;;28.70;59.00;;;;;;10456026;28;20211;-77
2022/07/03 11:31:41;;;;;;;2.60;2.50;;;28.40;58.00;;;;;;10448085;28;20308;-77
2022/07/03 11:36:45;;;;;;;2.30;2.20;;;28.20;57.50;;;;;;10449489;28;20225;-77
2022/07/03 11:41:47;;;;;;;2.20;2.10;;;28.10;57.00;;;;;;10456472;28;20241;-77
2022/07/03 11:46:52;;;;;;;2.10;2.00;;;27.90;58.00;;;;;;10449224;28;20280;-78
2022/07/03 11:52:01;;;;;;;2.30;2.20;;;27.80;59.00;;;;;;10452612;28;20231;-78
2022/07/03 11:57:03;;;;;;;2.23;2.13;;;27.80;58.20;;;;;;10457010;28;20216;-79
2022/07/03 12:02:06;;;;;;;2.50;2.30;;;27.80;59.50;;;;;;10456417;28;20221;-79
2022/07/03 12:07:09;;;;;;;2.00;1.90;;;27.90;58.80;;;;;;10466052;28;20239;-81
2022/07/03 12:12:12;;;;;;;1.90;1.80;;;27.80;59.90;;;;;;10454756;28;20598;-80
2022/07/03 12:17:16;;;;;;;2.07;1.97;;;27.80;60.60;;;;;;10457039;28;20316;-81
2022/07/03 12:22:32;;;;;;;2.57;2.10;;;27.80;61.20;;;;;;10443259;28;20241;-81
2022/07/03 12:27:37;;;;;;;2.13;2.03;;;27.80;59.70;;;;;;10456897;28;20679;-79
2022/07/03 12:32:40;;;;;;;2.50;2.30;;;27.80;59.60;;;;;;10456349;28;20206;-77
2022/07/03 12:37:44;;;;;;;2.10;2.00;;;27.90;59.40;;;;;;10439501;28;20255;-78
2022/07/03 12:42:47;;;;;;;1.97;1.87;;;27.90;60.00;;;;;;10439115;28;20671;-77
2022/07/03 12:47:58;;;;;;;1.83;1.83;;;27.90;58.20;;;;;;10439830;28;20228;-80
2022/07/03 12:53:03;;;;;;;1.90;1.80;;;27.90;58.40;;;;;;10461338;28;20211;-79
2022/07/03 13:03:38;;;;;;;2.20;2.10;;;27.90;57.50;;;;;;10426084;28;20657;-78
2022/07/03 13:08:50;;;;;;;2.47;2.37;;;27.80;59.70;;;;;;10449497;28;20213;-80
2022/07/03 13:13:52;;;;;;;2.47;2.37;;;27.70;58.70;;;;;;10440868;28;20208;-79
2022/07/03 13:18:58;;;;;;;2.00;1.90;;;27.80;58.10;;;;;;10454865;28;20681;-80
2022/07/03 13:24:02;;;;;;;2.43;2.23;;;27.70;60.40;;;;;;10448297;28;20295;-78
2022/07/03 13:29:04;;;;;;;2.70;2.50;;;27.90;58.90;;;;;;10433589;28;20788;-77
2022/07/03 13:34:07;;;;;;;3.70;2.83;;;28.20;60.90;;;;;;10437224;28;20291;-78
2022/07/03 13:39:10;;;;;;;2.70;2.60;;;28.30;60.10;;;;;;10451284;28;20225;-77
2022/07/03 13:44:13;;;;;;;2.57;2.40;;;28.40;62.40;;;;;;10443442;28;20193;-77
2022/07/03 13:49:15;;;;;;;2.70;2.60;;;28.40;61.00;;;;;;10445982;28;20607;-78
2022/07/03 13:54:18;;;;;;;2.30;2.20;;;28.40;60.70;;;;;;10428362;28;20528;-79
2022/07/03 13:59:22;;;;;;;2.70;2.60;;;28.50;59.10;;;;;;10437078;28;20233;-78
2022/07/03 14:04:24;;;;;;;2.47;2.37;;;28.40;59.80;;;;;;10434864;28;20197;-78
2022/07/03 14:09:28;;;;;;;2.53;2.43;;;28.30;59.50;;;;;;10440194;28;20304;-78
2022/07/03 14:14:30;;;;;;;2.93;2.83;;;28.10;59.40;;;;;;10444012;28;20217;-77
2022/07/03 14:19:32;;;;;;;3.57;3.30;;;27.90;64.90;;;;;;10446572;28;20231;-77
2022/07/03 14:24:36;;;;;;;3.03;2.90;;;27.20;71.60;;;;;;10447900;28;20189;-77
2022/07/03 14:34:58;;;;;;;2.27;2.17;;;26.30;70.60;;;;;;10448969;28;20213;-78
2022/07/03 14:40:01;;;;;;;3.10;2.40;;;26.20;69.50;;;;;;10443625;28;20739;-77
2022/07/03 14:45:04;;;;;;;3.13;2.20;;;26.20;69.40;;;;;;10446261;28;20293;-78
2022/07/03 14:50:07;;;;;;;2.70;2.50;;;26.20;69.00;;;;;;10447376;28;20578;-80
2022/07/03 14:55:13;;;;;;;2.30;2.20;;;26.30;68.90;;;;;;10454711;28;20229;-80
2022/07/03 15:00:16;;;;;;;2.40;2.30;;;26.50;67.40;;;;;;10455504;28;20220;-80
2022/07/03 15:05:18;;;;;;;2.23;2.13;;;26.60;66.20;;;;;;10450239;28;20201;-79
2022/07/03 15:10:23;;;;;;;2.07;1.97;;;26.80;66.10;;;;;;10451089;28;20220;-79
2022/07/03 15:15:26;;;;;;;2.17;2.07;;;26.90;65.30;;;;;;10456115;28;20213;-78
2022/07/03 15:20:32;;;;;;;2.33;2.23;;;26.90;67.20;;;;;;10452383;28;20225;-77
2022/07/03 15:25:38;;;;;;;2.03;1.93;;;26.90;67.00;;;;;;10443343;28;20288;-76
2022/07/03 15:30:49;;;;;;;2.10;2.00;;;27.00;66.10;;;;;;10444483;28;20720;-78
2022/07/03 15:35:55;;;;;;;2.47;1.80;;;26.90;64.00;;;;;;10446038;28;20249;-77
2022/07/03 15:40:59;;;;;;;1.70;1.57;;;26.90;63.20;;;;;;10447145;28;20237;-78
2022/07/03 15:46:08;;;;;;;2.27;2.07;;;26.90;63.80;;;;;;10447477;28;20292;-78
2022/07/03 15:51:19;;;;;;;2.70;2.50;;;27.00;61.10;;;;;;10451381;28;20304;-79
2022/07/03 15:56:26;;;;;;;2.13;2.03;;;27.00;62.60;;;;;;10456342;28;20307;-80
2022/07/03 16:06:54;;;;;;;2.20;2.10;;;27.10;61.80;;;;;;10454621;28;20197;-77
2022/07/03 16:11:58;;;;;;;2.70;2.20;;;27.10;61.80;;;;;;10441976;28;20223;-76
2022/07/03 16:17:04;;;;;;;2.10;2.00;;;27.10;60.30;;;;;;10450888;28;20329;-77
2022/07/03 16:22:07;;;;;;;2.00;1.80;;;27.20;59.90;;;;;;10450766;28;20275;-77
2022/07/03 16:27:15;;;;;;;2.30;2.10;;;27.20;59.50;;;;;;10455443;28;20190;-77
2022/07/03 16:32:20;;;;;;;2.40;2.30;;;27.20;58.80;;;;;;10456209;28;20220;-77
2022/07/03 16:37:29;;;;;;;1.60;1.50;;;27.20;59.00;;;;;;10455878;28;20312;-78
2022/07/03 16:42:35;;;;;;;1.90;1.90;;;27.20;58.70;;;;;;10454358;28;20600;-77
2022/07/03 16:47:42;;;;;;;2.20;2.00;;;27.20;59.00;;;;;;10450150;28;20197;-77
2022/07/03 16:52:46;;;;;;;2.00;1.90;;;27.20;63.10;;;;;;10456316;28;20199;-79
2022/07/03 16:57:51;;;;;;;2.13;1.90;;;27.10;60.60;;;;;;10461003;28;20231;-79
2022/07/03 17:02:55;;;;;;;3.73;2.17;;;27.00;59.40;;;;;;10460002;28;20255;-79
2022/07/03 17:07:59;;;;;;;2.10;2.00;;;27.00;60.30;;;;;;10454345;28;20236;-76
2022/07/03 17:13:03;;;;;;;2.20;2.10;;;27.00;59.90;;;;;;10458913;28;20201;-77
2022/07/03 17:18:07;;;;;;;2.00;1.80;;;26.90;59.80;;;;;;10457090;28;20245;-78
2022/07/03 17:23:12;;;;;;;2.30;2.20;;;26.90;60.40;;;;;;10448955;28;20195;-77
2022/07/03 17:28:16;;;;;;;1.70;1.60;;;26.80;62.50;;;;;;10448915;28;20639;-77
2022/07/03 17:33:19;;;;;;;2.40;2.20;;;26.70;62.00;;;;;;10447484;28;20233;-77
2022/07/03 17:38:23;;;;;;;1.97;1.87;;;26.60;62.60;;;;;;10449485;28;20239;-77
2022/07/03 17:43:27;;;;;;;2.10;2.00;;;26.60;62.20;;;;;;10450766;28;20580;-78
2022/07/03 17:48:31;;;;;;;1.70;1.60;;;26.50;59.90;;;;;;10447079;28;20213;-78
2022/07/03 17:53:35;;;;;;;2.47;2.20;;;26.50;62.00;;;;;;10439155;28;20744;-78
2022/07/03 17:58:40;;;;;;;2.13;2.03;;;26.40;63.50;;;;;;10441327;28;20222;-79
2022/07/03 18:03:43;;;;;;;2.20;2.10;;;26.40;62.90;;;;;;10444571;28;20205;-78
2022/07/03 18:08:47;;;;;;;2.13;1.93;;;26.30;63.70;;;;;;10450691;28;20855;-79
2022/07/03 18:13:58;;;;;;;2.00;1.90;;;26.30;64.10;;;;;;10448780;28;20205;-79
2022/07/03 18:19:01;;;;;;;2.10;1.93;;;26.20;61.40;;;;;;10458745;28;20599;-79
2022/07/03 18:24:04;;;;;;;2.10;2.00;;;26.20;61.90;;;;;;10451023;28;20247;-78
2022/07/03 18:29:11;;;;;;;1.83;1.77;;;26.20;63.20;;;;;;10467913;28;20871;-79
2022/07/03 18:34:17;;;;;;;3.03;2.30;;;26.10;61.70;;;;;;10454339;28;20194;-79
2022/07/03 18:39:22;;;;;;;2.33;2.10;;;26.10;63.40;;;;;;10452700;28;20248;-78
2022/07/03 18:44:30;;;;;;;2.33;2.10;;;26.00;63.80;;;;;;10446603;28;20680;-80
2022/07/03 18:49:33;;;;;;;2.20;2.00;;;25.90;65.80;;;;;;10443964;28;20591;-79
2022/07/03 18:54:43;;;;;;;2.90;2.30;;;25.80;65.40;;;;;;10443758;28;20201;-78
2022/07/03 18:59:58;;;;;;;1.77;1.67;;;25.70;66.80;;;;;;10444834;28;20235;-78
2022/07/03 19:05:00;;;;;;;2.00;1.90;;;25.60;66.60;;;;;;10446552;28;20288;-76
2022/07/03 19:10:05;;;;;;;2.30;2.20;;;25.50;67.10;;;;;;10440902;28;20664;-77
2022/07/03 19:15:09;;;;;;;2.30;2.10;;;25.50;66.80;;;;;;10441353;28;20329;-79
2022/07/03 19:20:12;;;;;;;2.40;2.20;;;25.40;69.60;;;;;;10444719;28;20320;-76
2022/07/03 19:25:15;;;;;;;2.20;2.10;;;25.30;69.30;;;;;;10449711;28;20205;-76
2022/07/03 19:30:18;;;;;;;2.57;2.37;;;25.20;69.50;;;;;;10454194;28;20300;-76
2022/07/03 19:35:21;;;;;;;2.03;1.93;;;25.10;70.00;;;;;;10446027;28;20217;-76
2022/07/03 19:40:23;;;;;;;2.60;2.40;;;25.00;70.00;;;;;;10448715;28;20290;-76
2022/07/03 19:45:27;;;;;;;1.90;1.80;;;24.90;71.20;;;;;;10450328;28;20291;-77
2022/07/03 19:50:29;;;;;;;3.67;2.70;;;24.80;71.50;;;;;;10453074;28;20217;-77
2022/07/03 19:55:32;;;;;;;3.53;2.10;;;24.60;70.90;;;;;;10439012;28;20214;-77
2022/07/03 20:00:36;;;;;;;2.50;2.30;;;24.50;71.40;;;;;;10448650;28;20236;-76
2022/07/03 20:05:38;;;;;;;3.50;2.63;;;24.40;71.60;;;;;;10452012;28;20343;-77
2022/07/03 20:10:40;;;;;;;2.27;2.17;;;24.30;71.90;;;;;;10452597;28;20770;-78
2022/07/03 20:15:44;;;;;;;2.30;2.20;;;24.20;72.40;;;;;;10453550;28;20629;-78
2022/07/03 20:20:46;;;;;;;2.30;2.20;;;24.10;72.90;;;;;;10445054;28;20232;-78
2022/07/03 20:25:55;;;;;;;2.40;2.30;;;24.00;72.80;;;;;;10456581;28;20202;-78
2022/07/03 20:30:58;;;;;;;2.00;1.90;;;23.90;73.10;;;;;;10453966;28;20209;-78
2022/07/03 20:36:00;;;;;;;2.77;2.57;;;23.90;73.40;;;;;;10454815;28;20205;-78
2022/07/03 20:41:02;;;;;;;2.97;2.67;;;23.80;74.20;;;;;;10455776;28;20225;-77
2022/07/03 20:46:06;;;;;;;2.13;2.03;;;23.70;74.20;;;;;;10448637;28;20562;-78
2022/07/03 20:51:08;;;;;;;2.20;2.00;;;23.70;74.80;;;;;;10454931;28;20271;-79
2022/07/03 20:56:10;;;;;;;2.57;2.40;;;23.60;74.20;;;;;;10457030;28;20252;-79
2022/07/03 21:01:14;;;;;;;3.00;2.10;;;23.60;73.80;;;;;;10455817;28;20278;-79
2022/07/03 21:06:22;;;;;;;2.50;2.40;;;23.60;74.40;;;;;;10460645;28;20232;-78
2022/07/03 21:11:32;;;;;;;3.30;2.57;;;23.60;74.20;;;;;;10453175;28;20221;-78
2022/07/03 21:16:37;;;;;;;2.70;2.50;;;23.60;74.90;;;;;;10453316;28;20217;-77
2022/07/03 21:21:40;;;;;;;2.30;2.10;;;23.60;75.40;;;;;;10451837;28;20225;-78
2022/07/03 21:26:43;;;;;;;3.03;2.77;;;23.60;74.90;;;;;;10459297;28;20229;-77
2022/07/03 21:31:47;;;;;;;3.33;2.47;;;23.60;75.40;;;;;;10452821;28;20226;-77
2022/07/03 21:36:49;;;;;;;2.97;2.77;;;23.50;78.60;;;;;;10447176;28;20219;-78
2022/07/03 21:41:51;;;;;;;2.77;2.63;;;23.50;76.40;;;;;;10450056;28;20233;-77
2022/07/03 21:46:55;;;;;;;3.00;2.63;;;23.40;76.70;;;;;;10450681;28;20208;-78
2022/07/03 21:51:57;;;;;;;5.07;2.90;;;23.40;76.00;;;;;;10450841;28;20217;-78
2022/07/03 21:56:59;;;;;;;5.73;2.40;;;23.30;76.30;;;;;;10446581;28;20216;-77
2022/07/03 22:02:03;;;;;;;2.47;2.27;;;23.30;77.30;;;;;;10446253;28;20217;-78
2022/07/03 22:07:05;;;;;;;2.43;2.33;;;23.20;78.70;;;;;;10450409;28;20292;-79
2022/07/03 22:17:29;;;;;;;2.23;2.13;;;23.10;77.60;;;;;;10454752;28;20220;-78
2022/07/03 22:22:32;;;;;;;2.40;2.20;;;23.10;79.60;;;;;;10450250;28;20271;-78
2022/07/03 22:27:35;;;;;;;2.17;2.07;;;23.00;77.30;;;;;;10451395;28;20653;-79
2022/07/03 22:32:41;;;;;;;2.30;2.00;;;23.00;81.40;;;;;;10452870;28;20205;-79
2022/07/03 22:37:44;;;;;;;2.50;2.30;;;23.00;77.10;;;;;;10454161;28;20327;-77
2022/07/03 22:42:47;;;;;;;2.07;1.87;;;23.00;78.80;;;;;;10454949;28;20207;-79
2022/07/03 22:47:50;;;;;;;2.60;2.10;;;22.90;78.80;;;;;;10451391;28;20610;-79
2022/07/03 22:52:52;;;;;;;2.47;2.37;;;22.90;80.00;;;;;;10453069;28;20756;-79
2022/07/03 22:57:54;;;;;;;4.37;2.43;;;22.90;80.20;;;;;;10454349;28;20232;-78
2022/07/03 23:02:58;;;;;;;2.33;2.23;;;22.90;80.00;;;;;;10465346;28;20197;-78
2022/07/03 23:08:00;;;;;;;2.67;2.20;;;22.90;81.20;;;;;;10466095;28;20217;-77
2022/07/03 23:13:02;;;;;;;2.47;2.27;;;22.80;81.90;;;;;;10460623;28;20221;-78
2022/07/03 23:18:06;;;;;;;2.97;2.80;;;22.80;82.50;;;;;;10461778;28;20228;-78
2022/07/03 23:23:08;;;;;;;2.80;2.60;;;22.80;82.10;;;;;;10464870;28;20201;-78
2022/07/03 23:28:10;;;;;;;2.90;2.60;;;22.80;80.30;;;;;;10462000;28;20631;-78
2022/07/03 23:33:14;;;;;;;2.13;2.03;;;22.80;81.80;;;;;;10457732;28;20205;-79
2022/07/03 23:38:16;;;;;;;3.03;2.23;;;22.90;82.50;;;;;;10459416;28;20225;-79
2022/07/03 23:43:18;;;;;;;2.40;2.30;;;22.90;84.30;;;;;;10460660;28;20677;-79
2022/07/03 23:53:41;;;;;;;4.40;2.40;;;23.10;84.80;;;;;;10463159;28;20201;-79
2022/07/03 23:58:43;;;;;;;2.53;2.30;;;23.10;85.60;;;;;;10457479;28;20315;-79
